Time,TemperatureF,DewpointF,PressureIn,WindDirection,WindDirectionDegrees,WindSpeedMPH,WindSpeedGustMPH,Humidity,HourlyPrecipIn,Conditions,Clouds,dailyrainin,SolarRadiationWatts/m^2,SoftwareType,DateUTC
2013-10-21 00:00:00,41.5,37.9,30.08,WNW,294,0.0,0.0,87,0.00,,---,0.00,0.00,VWS V14.01,2013-10-21 04:00:00,
2013-10-21 00:01:00,41.1,37.5,30.08,WNW,294,0.0,0.0,87,0.00,,---,0.00,0.00,VWS V14.01,2013-10-21 04:01:00,
2013-10-21 00:06:00,41.0,37.7,30.08,WNW,294,0.0,0.0,88,0.00,,---,0.00,0.00,VWS V14.01,2013-10-21 04:06:00,
2013-10-21 00:11:00,41.0,38.0,30.08,WNW,294,0.0,0.0,89,0.00,,---,0.00,0.00,VWS V14.01,2013-10-21 04:11:00,
2013-10-21 00:16:00,41.0,38.3,30.09,WNW,294,0.0,0.0,90,0.00,,---,0.00,0.00,VWS V14.01,2013-10-21 04:16:00,
2013-10-21 00:21:00,41.0,38.3,30.09,WNW,294,0.0,0.0,90,0.00,,---,0.00,0.00,VWS V14.01,2013-10-21 04:21:00,
2013-10-21 00:26:00,41.2,38.5,30.09,WNW,294,0.0,0.0,90,0.00,,---,0.00,0.00,VWS V14.01,2013-10-21 04:26:00,
2013-10-21 00:30:00,41.8,37.9,30.08,WNW,294,0.0,0.0,86,0.00,,---,0.00,0.00,VWS V14.01,2013-10-21 04:30:00,
2013-10-21 00:31:00,41.3,38.3,30.08,WNW,294,0.0,0.0,89,0.00,,---,0.00,0.00,VWS V14.01,2013-10-21 04:31:00,
2013-10-21 00:36:00,41.5,38.5,30.08,WNW,294,0.0,0.0,89,0.00,,---,0.00,0.00,VWS V14.01,2013-10-21 04:36:00,
2013-10-21 00:41:00,41.5,38.5,30.08,WNW,294,0.0,0.0,89,0.00,,---,0.00,0.00,VWS V14.01,2013-10-21 04:41:00,
2013-10-21 00:46:00,41.7,38.4,30.08,WNW,294,0.0,0.0,88,0.00,,---,0.00,0.00,VWS V14.01,2013-10-21 04:46:00,
2013-10-21 00:51:00,41.8,38.5,30.08,WNW,294,0.0,0.0,88,0.00,,---,0.00,0.00,VWS V14.01,2013-10-21 04:51:00,
2013-10-21 00:56:00,42.0,38.7,30.08,WNW,294,0.0,0.0,88,0.00,,---,0.00,0.00,VWS V14.01,2013-10-21 04:56:00,
2013-10-21 01:00:00,41.1,37.5,30.08,WNW,294,0.0,0.0,87,0.00,,---,0.00,0.00,VWS V14.01,2013-10-21 05:00:00,
2013-10-21 01:01:00,42.1,38.8,30.09,WNW,294,0.0,0.0,88,0.00,,---,0.00,0.00,VWS V14.01,2013-10-21 05:01:00,
2013-10-21 01:06:00,42.1,39.1,30.09,WNW,294,0.0,0.0,89,0.00,,---,0.00,0.00,VWS V14.01,2013-10-21 05:06:00,
2013-10-21 01:11:00,42.1,39.1,30.09,WNW,294,0.0,0.0,89,0.00,,---,0.00,0.00,VWS V14.01,2013-10-21 05:11:00,
2013-10-21 01:16:00,42.1,39.1,30.09,WNW,294,0.0,0.0,89,0.00,,---,0.00,0.00,VWS V14.01,2013-10-21 05:16:00,
2013-10-21 01:21:00,42.1,39.1,30.09,WNW,294,0.0,0.0,89,0.00,,---,0.00,0.00,VWS V14.01,2013-10-21 05:21:00,
2013-10-21 01:26:00,42.0,38.7,30.09,WNW,294,0.0,0.0,88,0.00,,---,0.00,0.00,VWS V14.01,2013-10-21 05:26:00,
2013-10-21 01:30:00,41.3,38.3,30.08,WNW,294,0.0,0.0,89,0.00,,---,0.00,0.00,VWS V14.01,2013-10-21 05:30:00,
2013-10-21 01:31:00,41.9,38.6,30.09,WNW,294,0.0,0.0,88,0.00,,---,0.00,0.00,VWS V14.01,2013-10-21 05:31:00,
2013-10-21 01:36:00,41.8,38.5,30.09,WNW,294,0.0,0.0,88,0.00,,---,0.00,0.00,VWS V14.01,2013-10-21 05:36:00,
2013-10-21 01:41:00,41.7,38.7,30.09,WNW,294,0.0,0.0,89,0.00,,---,0.00,0.00,VWS V14.01,2013-10-21 05:41:00,
2013-10-21 01:46:00,41.5,38.5,30.09,WNW,294,0.0,0.0,89,0.00,,---,0.00,0.00,VWS V14.01,2013-10-21 05:46:00,
2013-10-21 01:51:00,41.3,38.0,30.10,WNW,294,0.0,0.0,88,0.00,,---,0.00,0.00,VWS V14.01,2013-10-21 05:51:00,
2013-10-21 02:00:00,42.0,38.7,30.09,WNW,294,0.0,0.0,88,0.00,,---,0.00,0.00,VWS V14.01,2013-10-21 06:00:00,
2013-10-21 02:02:00,41.2,37.9,30.10,WNW,294,0.0,0.0,88,0.00,,---,0.00,0.00,VWS V14.01,2013-10-21 06:02:00,
2013-10-21 02:07:00,40.6,37.6,30.10,WNW,294,0.0,0.0,89,0.00,,---,0.00,0.00,VWS V14.01,2013-10-21 06:07:00,
2013-10-21 02:12:00,40.3,37.3,30.10,WNW,294,0.0,0.0,89,0.00,,---,0.00,0.00,VWS V14.01,2013-10-21 06:12:00,
2013-10-21 02:17:00,40.1,37.1,30.10,WNW,294,0.0,0.0,89,0.00,,---,0.00,0.00,VWS V14.01,2013-10-21 06:17:00,
2013-10-21 02:22:00,39.8,36.8,30.10,WNW,294,0.0,0.0,89,0.00,,---,0.00,0.00,VWS V14.01,2013-10-21 06:22:00,
2013-10-21 02:27:00,39.5,36.8,30.10,WNW,294,0.0,0.0,90,0.00,,---,0.00,0.00,VWS V14.01,2013-10-21 06:27:00,
2013-10-21 02:30:00,41.9,38.6,30.09,WNW,294,0.0,0.0,88,0.00,,---,0.00,0.00,VWS V14.01,2013-10-21 06:30:00,
2013-10-21 02:32:00,39.3,36.9,30.10,WNW,294,0.0,0.0,91,0.00,,---,0.00,0.00,VWS V14.01,2013-10-21 06:32:00,
2013-10-21 02:37:00,39.1,36.7,30.11,WNW,294,0.0,0.0,91,0.00,,---,0.00,0.00,VWS V14.01,2013-10-21 06:37:00,
2013-10-21 02:42:00,39.0,36.6,30.10,WNW,294,0.0,0.0,91,0.00,,---,0.00,0.00,VWS V14.01,2013-10-21 06:42:00,
2013-10-21 02:47:00,38.8,36.7,30.11,WNW,294,0.0,0.0,92,0.00,,---,0.00,0.00,VWS V14.01,2013-10-21 06:47:00,
2013-10-21 02:52:00,38.5,36.4,30.11,WNW,294,0.0,0.0,92,0.00,,---,0.00,0.00,VWS V14.01,2013-10-21 06:52:00,
2013-10-21 02:57:00,38.2,36.1,30.11,WNW,294,0.0,0.0,92,0.00,,---,0.00,0.00,VWS V14.01,2013-10-21 06:57:00,
2013-10-21 03:02:00,37.8,35.4,30.11,WNW,294,0.0,0.0,91,0.00,,---,0.00,0.00,VWS V14.01,2013-10-21 07:02:00,
2013-10-21 03:07:00,37.6,35.5,30.11,WNW,294,0.0,0.0,92,0.00,,---,0.00,0.00,VWS V14.01,2013-10-21 07:07:00,
2013-10-21 03:12:00,37.3,35.2,30.11,WNW,294,0.0,0.0,92,0.00,,---,0.00,0.00,VWS V14.01,2013-10-21 07:12:00,
2013-10-21 03:17:00,37.1,35.0,30.11,WNW,294,0.0,0.0,92,0.00,,---,0.00,0.00,VWS V14.01,2013-10-21 07:17:00,
2013-10-21 03:22:00,36.9,35.1,30.11,WNW,294,0.0,0.0,93,0.00,,---,0.00,0.00,VWS V14.01,2013-10-21 07:22:00,
2013-10-21 03:27:00,36.8,35.0,30.11,WNW,294,0.0,0.0,93,0.00,,---,0.00,0.00,VWS V14.01,2013-10-21 07:27:00,
2013-10-21 03:30:00,39.4,37.0,30.10,WNW,294,0.0,0.0,91,0.00,,---,0.00,0.00,VWS V14.01,2013-10-21 07:30:00,
2013-10-21 03:32:00,36.7,34.9,30.11,WNW,294,0.0,0.0,93,0.00,,---,0.00,0.00,VWS V14.01,2013-10-21 07:32:00,
2013-10-21 03:37:00,36.6,35.0,30.11,WNW,294,0.0,0.0,94,0.00,,---,0.00,0.00,VWS V14.01,2013-10-21 07:37:00,
2013-10-21 03:42:00,36.5,34.7,30.12,WNW,294,0.0,0.0,93,0.00,,---,0.00,0.00,VWS V14.01,2013-10-21 07:42:00,
2013-10-21 03:47:00,36.3,34.5,30.12,WNW,294,0.0,0.0,93,0.00,,---,0.00,0.00,VWS V14.01,2013-10-21 07:47:00,
2013-10-21 03:52:00,36.1,34.5,30.12,WNW,294,0.0,0.0,94,0.00,,---,0.00,0.00,VWS V14.01,2013-10-21 07:52:00,
2013-10-21 03:57:00,35.9,34.3,30.12,WNW,294,0.0,0.0,94,0.00,,---,0.00,0.00,VWS V14.01,2013-10-21 07:57:00,
2013-10-21 04:00:00,38.0,35.9,30.11,WNW,294,0.0,0.0,92,0.00,,---,0.00,0.00,VWS V14.01,2013-10-21 08:00:00,
2013-10-21 04:02:00,35.8,34.2,30.12,WNW,294,0.0,0.0,94,0.00,,---,0.00,0.00,VWS V14.01,2013-10-21 08:02:00,
2013-10-21 04:07:00,35.7,34.2,30.12,WNW,294,0.0,0.0,94,0.00,,---,0.00,0.00,VWS V14.01,2013-10-21 08:07:00,
2013-10-21 04:12:00,35.6,34.0,30.12,WNW,294,0.0,0.0,94,0.00,,---,0.00,0.00,VWS V14.01,2013-10-21 08:12:00,
2013-10-21 04:17:00,35.6,34.0,30.12,WNW,294,0.0,0.0,94,0.00,,---,0.00,0.00,VWS V14.01,2013-10-21 08:17:00,
2013-10-21 04:22:00,35.5,34.0,30.13,WNW,294,0.0,0.0,94,0.00,,---,0.00,0.00,VWS V14.01,2013-10-21 08:22:00,
2013-10-21 04:27:00,35.3,33.8,30.13,WNW,294,0.0,0.0,94,0.00,,---,0.00,0.00,VWS V14.01,2013-10-21 08:27:00,
2013-10-21 04:30:00,36.7,34.9,30.11,WNW,294,0.0,0.0,93,0.00,,---,0.00,0.00,VWS V14.01,2013-10-21 08:30:00,
2013-10-21 04:32:00,35.1,33.5,30.12,WNW,294,0.0,0.0,94,0.00,,---,0.00,0.00,VWS V14.01,2013-10-21 08:32:00,
2013-10-21 04:37:00,34.8,33.2,30.12,WNW,294,0.0,0.0,94,0.00,,---,0.00,0.00,VWS V14.01,2013-10-21 08:37:00,
2013-10-21 04:42:00,34.6,33.0,30.12,WNW,294,0.0,0.0,94,0.00,,---,0.00,0.00,VWS V14.01,2013-10-21 08:42:00,
2013-10-21 04:47:00,34.6,33.0,30.12,WNW,294,0.0,0.0,94,0.00,,---,0.00,0.00,VWS V14.01,2013-10-21 08:47:00,
2013-10-21 04:52:00,34.6,33.3,30.12,WNW,294,0.0,0.0,95,0.00,,---,0.00,0.00,VWS V14.01,2013-10-21 08:52:00,
2013-10-21 04:57:00,34.6,33.3,30.12,WNW,294,0.0,0.0,95,0.00,,---,0.00,0.00,VWS V14.01,2013-10-21 08:57:00,
2013-10-21 05:00:00,35.8,34.2,30.12,WNW,294,0.0,0.0,94,0.00,,---,0.00,0.00,VWS V14.01,2013-10-21 09:00:00,
2013-10-21 05:02:00,34.5,33.2,30.13,WNW,294,0.0,0.0,95,0.00,,---,0.00,0.00,VWS V14.01,2013-10-21 09:02:00,
2013-10-21 05:07:00,34.4,33.1,30.13,WNW,294,0.0,0.0,95,0.00,,---,0.00,0.00,VWS V14.01,2013-10-21 09:07:00,
2013-10-21 05:12:00,34.3,33.0,30.13,WNW,294,0.0,0.0,95,0.00,,---,0.00,0.00,VWS V14.01,2013-10-21 09:12:00,
2013-10-21 05:17:00,34.3,33.0,30.13,WNW,294,0.0,0.0,95,0.00,,---,0.00,0.00,VWS V14.01,2013-10-21 09:17:00,
2013-10-21 05:22:00,34.4,33.1,30.13,WNW,294,0.0,0.0,95,0.00,,---,0.00,0.00,VWS V14.01,2013-10-21 09:22:00,
2013-10-21 05:27:00,34.4,33.1,30.13,WNW,294,0.0,0.0,95,0.00,,---,0.00,0.00,VWS V14.01,2013-10-21 09:27:00,
2013-10-21 05:30:00,35.1,33.5,30.12,WNW,294,0.0,0.0,94,0.00,,---,0.00,0.00,VWS V14.01,2013-10-21 09:30:00,
2013-10-21 05:32:00,34.2,32.9,30.13,WNW,294,0.0,0.0,95,0.00,,---,0.00,0.00,VWS V14.01,2013-10-21 09:32:00,
2013-10-21 05:37:00,34.1,32.8,30.13,WNW,294,0.0,0.0,95,0.00,,---,0.00,0.00,VWS V14.01,2013-10-21 09:37:00,
2013-10-21 05:42:00,33.9,32.6,30.13,WNW,294,0.0,0.0,95,0.00,,---,0.00,0.00,VWS V14.01,2013-10-21 09:42:00,
2013-10-21 05:47:00,33.8,32.5,30.14,WNW,294,0.0,0.0,95,0.00,,---,0.00,0.00,VWS V14.01,2013-10-21 09:47:00,
2013-10-21 05:52:00,33.7,32.4,30.14,WNW,294,0.0,0.0,95,0.00,,---,0.00,0.00,VWS V14.01,2013-10-21 09:52:00,
2013-10-21 05:57:00,33.6,32.3,30.14,WNW,294,0.0,0.0,95,0.00,,---,0.00,0.00,VWS V14.01,2013-10-21 09:57:00,
2013-10-21 06:00:00,34.5,33.2,30.13,WNW,294,0.0,0.0,95,0.00,,---,0.00,0.00,VWS V14.01,2013-10-21 10:00:00,
2013-10-21 06:02:00,33.5,32.2,30.14,WNW,294,0.0,0.0,95,0.00,,---,0.00,0.00,VWS V14.01,2013-10-21 10:02:00,
2013-10-21 06:07:00,33.4,32.1,30.14,WNW,294,0.0,0.0,95,0.00,,---,0.00,0.00,VWS V14.01,2013-10-21 10:07:00,
2013-10-21 06:12:00,33.4,32.1,30.14,WNW,294,0.0,0.0,95,0.00,,---,0.00,0.00,VWS V14.01,2013-10-21 10:12:00,
2013-10-21 06:17:00,33.3,32.0,30.14,WNW,294,0.0,0.0,95,0.00,,---,0.00,0.00,VWS V14.01,2013-10-21 10:17:00,
2013-10-21 06:22:00,33.1,31.8,30.14,WNW,294,0.0,0.0,95,0.00,,---,0.00,0.00,VWS V14.01,2013-10-21 10:22:00,
2013-10-21 06:27:00,33.0,31.7,30.14,WNW,294,0.0,0.0,95,0.00,,---,0.00,0.00,VWS V14.01,2013-10-21 10:27:00,
2013-10-21 06:30:00,34.3,33.0,30.13,WNW,294,0.0,0.0,95,0.00,,---,0.00,0.00,VWS V14.01,2013-10-21 10:30:00,
2013-10-21 06:32:00,33.0,31.7,30.14,WNW,294,0.0,0.0,95,0.00,,---,0.00,0.00,VWS V14.01,2013-10-21 10:32:00,
2013-10-21 06:37:00,33.0,31.7,30.14,WNW,294,0.0,0.0,95,0.00,,---,0.00,0.00,VWS V14.01,2013-10-21 10:37:00,
2013-10-21 06:42:00,33.1,32.1,30.14,WNW,294,0.0,0.0,96,0.00,,---,0.00,0.00,VWS V14.01,2013-10-21 10:42:00,
2013-10-21 06:47:00,33.3,32.3,30.14,WNW,294,0.0,0.0,96,0.00,,---,0.00,0.00,VWS V14.01,2013-10-21 10:47:00,
2013-10-21 06:52:00,33.4,32.4,30.14,WNW,294,0.0,0.0,96,0.00,,---,0.00,0.00,VWS V14.01,2013-10-21 10:52:00,
2013-10-21 06:57:00,33.3,32.3,30.14,WNW,294,0.0,0.0,96,0.00,,---,0.00,0.00,VWS V14.01,2013-10-21 10:57:00,
2013-10-21 07:00:00,33.5,32.2,30.14,WNW,294,0.0,0.0,95,0.00,,---,0.00,0.00,VWS V14.01,2013-10-21 11:00:00,
2013-10-21 07:02:00,33.2,32.2,30.14,WNW,294,0.0,0.0,96,0.00,,---,0.00,0.00,VWS V14.01,2013-10-21 11:02:00,
2013-10-21 07:07:00,33.7,32.7,30.14,WNW,294,0.0,0.0,96,0.00,,---,0.00,0.00,VWS V14.01,2013-10-21 11:07:00,
2013-10-21 07:12:00,33.8,32.8,30.15,WNW,294,0.0,0.0,96,0.00,,---,0.00,0.00,VWS V14.01,2013-10-21 11:12:00,
2013-10-21 07:17:00,33.8,33.8,30.15,WNW,294,0.0,0.0,100,0.00,,---,0.00,5.00,VWS V14.01,2013-10-21 11:17:00,
2013-10-21 07:22:00,33.6,32.6,30.15,WNW,294,0.0,0.0,96,0.00,,---,0.00,7.00,VWS V14.01,2013-10-21 11:22:00,
2013-10-21 07:27:00,33.6,32.6,30.15,WNW,294,0.0,0.0,96,0.00,,---,0.00,9.00,VWS V14.01,2013-10-21 11:27:00,
2013-10-21 07:30:00,33.0,31.7,30.14,WNW,294,0.0,0.0,95,0.00,,---,0.00,0.00,VWS V14.01,2013-10-21 11:30:00,
2013-10-21 07:32:00,33.6,32.6,30.16,WNW,294,0.0,0.0,96,0.00,,---,0.00,12.00,VWS V14.01,2013-10-21 11:32:00,
2013-10-21 07:37:00,33.7,32.7,30.16,WNW,294,0.0,0.0,96,0.00,,---,0.00,14.00,VWS V14.01,2013-10-21 11:37:00,
2013-10-21 07:42:00,33.6,32.6,30.16,WNW,294,0.0,0.0,96,0.00,,---,0.00,16.00,VWS V14.01,2013-10-21 11:42:00,
2013-10-21 07:47:00,33.8,32.8,30.16,WNW,294,0.0,0.0,96,0.00,,---,0.00,28.00,VWS V14.01,2013-10-21 11:47:00,
2013-10-21 07:52:00,34.2,33.2,30.16,WNW,294,0.0,0.0,96,0.00,,---,0.00,40.00,VWS V14.01,2013-10-21 11:52:00,
2013-10-21 07:57:00,34.8,34.0,30.16,WNW,294,0.0,0.0,97,0.00,,---,0.00,51.00,VWS V14.01,2013-10-21 11:57:00,
2013-10-21 08:00:00,33.2,32.2,30.14,WNW,294,0.0,0.0,96,0.00,,---,0.00,0.00,VWS V14.01,2013-10-21 12:00:00,
2013-10-21 08:02:00,35.1,34.1,30.16,WNW,294,0.0,0.0,96,0.00,,---,0.00,62.00,VWS V14.01,2013-10-21 12:02:00,
2013-10-21 08:07:00,35.5,34.5,30.17,WNW,294,0.0,0.0,96,0.00,,---,0.00,74.00,VWS V14.01,2013-10-21 12:07:00,
2013-10-21 08:12:00,36.1,35.3,30.17,WNW,294,0.0,0.0,97,0.00,,---,0.00,88.00,VWS V14.01,2013-10-21 12:12:00,
2013-10-21 08:17:00,36.6,35.8,30.17,WNW,294,0.0,0.0,97,0.00,,---,0.00,100.00,VWS V14.01,2013-10-21 12:17:00,
2013-10-21 08:22:00,37.1,36.3,30.17,WNW,294,0.0,0.0,97,0.00,,---,0.00,114.00,VWS V14.01,2013-10-21 12:22:00,
2013-10-21 08:27:00,37.6,36.6,30.17,WNW,294,0.0,0.0,96,0.00,,---,0.00,130.00,VWS V14.01,2013-10-21 12:27:00,
2013-10-21 08:30:00,33.6,32.6,30.15,WNW,294,0.0,0.0,96,0.00,,---,0.00,11.00,VWS V14.01,2013-10-21 12:30:00,
2013-10-21 08:32:00,38.2,37.2,30.17,WNW,294,0.0,0.0,96,0.00,,---,0.00,137.00,VWS V14.01,2013-10-21 12:32:00,
2013-10-21 08:37:00,39.0,38.0,30.17,WNW,294,0.0,1.0,96,0.00,,---,0.00,167.00,VWS V14.01,2013-10-21 12:37:00,
2013-10-21 08:42:00,39.7,38.4,30.17,WNW,294,0.0,1.0,95,0.00,,---,0.00,176.00,VWS V14.01,2013-10-21 12:42:00,
2013-10-21 08:47:00,40.4,39.1,30.17,WNW,294,0.0,1.0,95,0.00,,---,0.00,197.00,VWS V14.01,2013-10-21 12:47:00,
2013-10-21 08:52:00,41.2,39.6,30.17,WNW,294,0.0,1.0,94,0.00,,---,0.00,221.00,VWS V14.01,2013-10-21 12:52:00,
2013-10-21 08:57:00,42.1,40.2,30.17,WNW,294,0.0,1.0,93,0.00,,---,0.00,221.00,VWS V14.01,2013-10-21 12:57:00,
2013-10-21 09:00:00,35.1,34.1,30.16,WNW,294,0.0,0.0,96,0.00,,---,0.00,58.00,VWS V14.01,2013-10-21 13:00:00,
2013-10-21 09:02:00,42.7,40.5,30.17,WNW,294,0.0,0.0,92,0.00,,---,0.00,239.00,VWS V14.01,2013-10-21 13:02:00,
2013-10-21 09:07:00,43.5,41.3,30.18,WNW,294,0.0,0.0,92,0.00,,---,0.00,267.00,VWS V14.01,2013-10-21 13:07:00,
2013-10-21 09:12:00,44.4,41.7,30.17,WNW,294,0.0,3.0,90,0.00,,---,0.00,281.00,VWS V14.01,2013-10-21 13:12:00,
2013-10-21 09:17:00,45.1,41.5,30.17,WNW,294,0.0,3.0,87,0.00,,---,0.00,290.00,VWS V14.01,2013-10-21 13:17:00,
2013-10-21 09:22:00,45.8,42.2,30.17,WNW,294,0.0,3.0,87,0.00,,---,0.00,302.00,VWS V14.01,2013-10-21 13:22:00,
2013-10-21 09:27:00,46.6,42.6,30.17,WNW,294,0.0,3.0,86,0.00,,---,0.00,306.00,VWS V14.01,2013-10-21 13:27:00,
2013-10-21 09:30:00,38.0,37.0,30.17,WNW,294,0.0,0.0,96,0.00,,---,0.00,141.00,VWS V14.01,2013-10-21 13:30:00,
2013-10-21 09:32:00,47.4,42.5,30.16,SE,130,0.0,3.0,83,0.00,,---,0.00,330.00,VWS V14.01,2013-10-21 13:32:00,
2013-10-21 09:37:00,48.4,43.5,30.16,SE,130,0.0,3.0,83,0.00,,---,0.00,345.00,VWS V14.01,2013-10-21 13:37:00,
2013-10-21 09:42:00,49.4,43.2,30.16,East,83,0.0,3.0,79,0.00,,---,0.00,357.00,VWS V14.01,2013-10-21 13:42:00,
2013-10-21 09:47:00,50.3,43.0,30.16,East,100,0.0,5.0,76,0.00,,---,0.00,371.00,VWS V14.01,2013-10-21 13:47:00,
2013-10-21 09:52:00,50.7,42.4,30.16,WSW,248,0.0,5.0,73,0.00,,---,0.00,378.00,VWS V14.01,2013-10-21 13:52:00,
2013-10-21 09:57:00,51.2,43.2,30.16,WSW,257,0.0,5.0,74,0.00,,---,0.00,373.00,VWS V14.01,2013-10-21 13:57:00,
2013-10-21 10:00:00,42.4,40.2,30.17,WNW,294,0.0,1.0,92,0.00,,---,0.00,237.00,VWS V14.01,2013-10-21 14:00:00,
2013-10-21 10:09:00,51.5,42.8,30.16,WSW,257,0.0,5.0,72,0.00,,---,0.00,396.00,VWS V14.01,2013-10-21 14:09:00,
2013-10-21 10:14:00,53.1,42.8,30.16,SW,222,0.0,5.0,68,0.00,,---,0.00,424.00,VWS V14.01,2013-10-21 14:14:00,
2013-10-21 10:19:00,53.4,43.1,30.16,SW,222,0.0,5.0,68,0.00,,---,0.00,434.00,VWS V14.01,2013-10-21 14:19:00,
2013-10-21 10:24:00,53.7,43.0,30.15,SW,225,0.0,5.0,67,0.00,,---,0.00,443.00,VWS V14.01,2013-10-21 14:24:00,
2013-10-21 10:29:00,54.1,43.4,30.15,SSW,198,0.0,5.0,67,0.00,,---,0.00,452.00,VWS V14.01,2013-10-21 14:29:00,
2013-10-21 10:30:00,47.2,42.6,30.17,WNW,294,0.0,3.0,84,0.00,,---,0.00,325.00,VWS V14.01,2013-10-21 14:30:00,
2013-10-21 10:34:00,54.5,43.4,30.15,WSW,242,0.0,4.0,66,0.00,,---,0.00,462.00,VWS V14.01,2013-10-21 14:34:00,
2013-10-21 10:39:00,55.2,44.5,30.15,SSE,147,0.0,4.0,67,0.00,,---,0.00,471.00,VWS V14.01,2013-10-21 14:39:00,
2013-10-21 10:44:00,55.7,43.7,30.16,West,279,0.0,4.0,64,0.00,,---,0.00,482.00,VWS V14.01,2013-10-21 14:44:00,
2013-10-21 10:49:00,55.9,43.9,30.15,West,279,0.0,4.0,64,0.00,,---,0.00,438.00,VWS V14.01,2013-10-21 14:49:00,
2013-10-21 10:54:00,56.2,44.2,30.15,West,279,0.0,4.0,64,0.00,,---,0.00,499.00,VWS V14.01,2013-10-21 14:54:00,
2013-10-21 10:59:00,56.5,43.7,30.15,WNW,289,2.0,4.0,62,0.00,,---,0.00,504.00,VWS V14.01,2013-10-21 14:59:00,
2013-10-21 11:04:00,56.5,43.7,30.15,WSW,257,0.0,6.0,62,0.00,,---,0.00,513.00,VWS V14.01,2013-10-21 15:04:00,
2013-10-21 11:09:00,57.1,44.6,30.15,SSE,152,0.0,6.0,63,0.00,,---,0.00,519.00,VWS V14.01,2013-10-21 15:09:00,
2013-10-21 11:14:00,57.6,43.8,30.15,West,259,4.0,6.0,60,0.00,,---,0.00,527.00,VWS V14.01,2013-10-21 15:14:00,
2013-10-21 11:19:00,57.7,43.9,30.15,West,261,0.0,6.0,60,0.00,,---,0.00,533.00,VWS V14.01,2013-10-21 15:19:00,
2013-10-21 11:24:00,57.7,43.5,30.15,West,260,0.0,6.0,59,0.00,,---,0.00,543.00,VWS V14.01,2013-10-21 15:24:00,
2013-10-21 11:29:00,58.1,43.9,30.14,ESE,105,3.0,6.0,59,0.00,,---,0.00,545.00,VWS V14.01,2013-10-21 15:29:00,
2013-10-21 11:30:00,54.2,43.9,30.15,SE,132,0.0,5.0,68,0.00,,---,0.00,454.00,VWS V14.01,2013-10-21 15:30:00,
2013-10-21 11:34:00,58.3,43.6,30.14,SW,225,0.0,4.0,58,0.00,,---,0.00,550.00,VWS V14.01,2013-10-21 15:34:00,
2013-10-21 11:39:00,58.6,43.9,30.14,SSW,204,0.0,4.0,58,0.00,,---,0.00,554.00,VWS V14.01,2013-10-21 15:39:00,
2013-10-21 11:44:00,59.4,46.0,30.14,ESE,121,3.0,4.0,61,0.00,,---,0.00,559.00,VWS V14.01,2013-10-21 15:44:00,
2013-10-21 11:49:00,60.0,45.2,30.13,ESE,117,0.0,4.0,58,0.00,,---,0.00,564.00,VWS V14.01,2013-10-21 15:49:00,
2013-10-21 11:54:00,59.8,43.1,30.13,West,275,0.0,4.0,54,0.00,,---,0.00,568.00,VWS V14.01,2013-10-21 15:54:00,
2013-10-21 11:59:00,60.2,44.9,30.13,WNW,300,0.0,4.0,57,0.00,,---,0.00,571.00,VWS V14.01,2013-10-21 15:59:00,
2013-10-21 12:00:00,56.5,43.7,30.15,SE,139,0.0,4.0,62,0.00,,---,0.00,506.00,VWS V14.01,2013-10-21 16:00:00,
2013-10-21 12:04:00,60.6,43.9,30.13,West,271,0.0,3.0,54,0.00,,---,0.00,575.00,VWS V14.01,2013-10-21 16:04:00,
2013-10-21 12:09:00,60.8,44.1,30.13,South,178,0.0,5.0,54,0.00,,---,0.00,578.00,VWS V14.01,2013-10-21 16:09:00,
2013-10-21 12:14:00,61.4,44.6,30.13,SSE,154,4.0,5.0,54,0.00,,---,0.00,582.00,VWS V14.01,2013-10-21 16:14:00,
2013-10-21 12:19:00,61.4,43.1,30.12,SSW,192,0.0,5.0,51,0.00,,---,0.00,584.00,VWS V14.01,2013-10-21 16:19:00,
2013-10-21 12:24:00,61.4,43.6,30.12,SW,224,0.0,7.0,52,0.00,,---,0.00,584.00,VWS V14.01,2013-10-21 16:24:00,
2013-10-21 12:29:00,61.7,43.9,30.12,SSW,213,0.0,7.0,52,0.00,,---,0.00,584.00,VWS V14.01,2013-10-21 16:29:00,
2013-10-21 12:30:00,58.2,44.0,30.14,SW,229,2.0,6.0,59,0.00,,---,0.00,547.00,VWS V14.01,2013-10-21 16:30:00,
2013-10-21 12:34:00,61.7,42.9,30.11,West,271,0.0,5.0,50,0.00,,---,0.00,552.00,VWS V14.01,2013-10-21 16:34:00,
2013-10-21 12:39:00,61.7,43.4,30.11,South,189,0.0,5.0,51,0.00,,---,0.00,483.00,VWS V14.01,2013-10-21 16:39:00,
2013-10-21 12:44:00,61.8,43.0,30.11,WSW,243,0.0,5.0,50,0.00,,---,0.00,513.00,VWS V14.01,2013-10-21 16:44:00,
2013-10-21 12:49:00,62.2,43.3,30.11,WSW,252,2.0,7.0,50,0.00,,---,0.00,369.00,VWS V14.01,2013-10-21 16:49:00,
2013-10-21 12:54:00,62.4,42.5,30.11,WSW,241,4.0,7.0,48,0.00,,---,0.00,239.00,VWS V14.01,2013-10-21 16:54:00,
2013-10-21 12:59:00,62.5,42.0,30.10,SW,236,0.0,7.0,47,0.00,,---,0.00,411.00,VWS V14.01,2013-10-21 16:59:00,
2013-10-21 13:00:00,60.3,44.1,30.13,West,263,3.0,4.0,55,0.00,,---,0.00,573.00,VWS V14.01,2013-10-21 17:00:00,
2013-10-21 13:04:00,62.6,42.1,30.10,West,276,5.0,6.0,47,0.00,,---,0.00,526.00,VWS V14.01,2013-10-21 17:04:00,
2013-10-21 13:09:00,62.8,42.3,30.10,South,175,1.0,6.0,47,0.00,,---,0.00,520.00,VWS V14.01,2013-10-21 17:09:00,
2013-10-21 13:14:00,63.2,42.7,30.10,ESE,116,4.0,6.0,47,0.00,,---,0.00,483.00,VWS V14.01,2013-10-21 17:14:00,
2013-10-21 13:19:00,63.6,43.0,30.09,SW,227,0.0,6.0,47,0.00,,---,0.00,571.00,VWS V14.01,2013-10-21 17:19:00,
2013-10-21 13:24:00,63.6,41.9,30.09,NW,310,6.0,7.0,45,0.00,,---,0.00,570.00,VWS V14.01,2013-10-21 17:24:00,
2013-10-21 13:29:00,63.9,41.0,30.09,SW,233,1.0,7.0,43,0.00,,---,0.00,564.00,VWS V14.01,2013-10-21 17:29:00,
2013-10-21 13:30:00,61.7,43.4,30.12,SSW,213,0.0,7.0,51,0.00,,---,0.00,584.00,VWS V14.01,2013-10-21 17:30:00,
2013-10-21 13:34:00,63.9,42.2,30.09,SSW,209,4.0,5.0,45,0.00,,---,0.00,561.00,VWS V14.01,2013-10-21 17:34:00,
2013-10-21 13:39:00,64.1,42.9,30.08,WNW,288,3.0,5.0,46,0.00,,---,0.00,557.00,VWS V14.01,2013-10-21 17:39:00,
2013-10-21 13:44:00,64.3,42.5,30.09,West,259,5.0,5.0,45,0.00,,---,0.00,550.00,VWS V14.01,2013-10-21 17:44:00,
2013-10-21 13:49:00,64.0,42.3,30.08,SE,134,0.0,7.0,45,0.00,,---,0.00,545.00,VWS V14.01,2013-10-21 17:49:00,
2013-10-21 13:54:00,63.8,41.5,30.08,SW,234,3.0,9.0,44,0.00,,---,0.00,538.00,VWS V14.01,2013-10-21 17:54:00,
2013-10-21 13:59:00,63.8,42.1,30.08,SW,234,2.0,9.0,45,0.00,,---,0.00,533.00,VWS V14.01,2013-10-21 17:59:00,
2013-10-21 14:00:00,62.5,43.1,30.10,SSW,201,2.0,7.0,49,0.00,,---,0.00,441.00,VWS V14.01,2013-10-21 18:00:00,
2013-10-21 14:04:00,63.9,42.2,30.08,WSW,238,0.0,6.0,45,0.00,,---,0.00,524.00,VWS V14.01,2013-10-21 18:04:00,
2013-10-21 14:09:00,64.2,41.8,30.07,SSW,204,2.0,6.0,44,0.00,,---,0.00,519.00,VWS V14.01,2013-10-21 18:09:00,
2013-10-21 14:14:00,64.1,41.8,30.08,South,175,0.0,8.0,44,0.00,,---,0.00,508.00,VWS V14.01,2013-10-21 18:14:00,
2013-10-21 14:19:00,64.4,43.2,30.07,NNE,27,0.0,8.0,46,0.00,,---,0.00,504.00,VWS V14.01,2013-10-21 18:19:00,
2013-10-21 14:24:00,64.6,42.2,30.07,West,279,3.0,9.0,44,0.00,,---,0.00,496.00,VWS V14.01,2013-10-21 18:24:00,
2013-10-21 14:29:00,64.9,42.5,30.07,SSW,202,2.0,9.0,44,0.00,,---,0.00,489.00,VWS V14.01,2013-10-21 18:29:00,
2013-10-21 14:30:00,63.9,41.6,30.09,WSW,243,5.0,7.0,44,0.00,,---,0.00,564.00,VWS V14.01,2013-10-21 18:30:00,
2013-10-21 14:34:00,64.9,42.5,30.07,SW,224,3.0,8.0,44,0.00,,---,0.00,478.00,VWS V14.01,2013-10-21 18:34:00,
2013-10-21 14:39:00,64.5,41.5,30.06,South,182,0.0,8.0,43,0.00,,---,0.00,471.00,VWS V14.01,2013-10-21 18:39:00,
2013-10-21 14:44:00,64.4,42.0,30.06,SW,222,4.0,8.0,44,0.00,,---,0.00,464.00,VWS V14.01,2013-10-21 18:44:00,
2013-10-21 14:49:00,64.5,42.1,30.06,SSE,163,0.0,8.0,44,0.00,,---,0.00,454.00,VWS V14.01,2013-10-21 18:49:00,
2013-10-21 14:54:00,64.6,41.6,30.06,WSW,241,1.0,8.0,43,0.00,,---,0.00,443.00,VWS V14.01,2013-10-21 18:54:00,
2013-10-21 14:59:00,64.7,42.3,30.06,South,171,0.0,8.0,44,0.00,,---,0.00,434.00,VWS V14.01,2013-10-21 18:59:00,
2013-10-21 15:00:00,63.8,41.5,30.08,WSW,238,6.0,9.0,44,0.00,,---,0.00,533.00,VWS V14.01,2013-10-21 19:00:00,
2013-10-21 15:04:00,65.1,42.7,30.06,SSW,205,2.0,4.0,44,0.00,,---,0.00,424.00,VWS V14.01,2013-10-21 19:04:00,
2013-10-21 15:09:00,65.3,41.6,30.06,WSW,244,4.0,6.0,42,0.00,,---,0.00,411.00,VWS V14.01,2013-10-21 19:09:00,
2013-10-21 15:14:00,65.0,42.0,30.06,ESE,112,0.0,9.0,43,0.00,,---,0.00,399.00,VWS V14.01,2013-10-21 19:14:00,
2013-10-21 15:19:00,65.2,42.8,30.06,SW,236,3.0,9.0,44,0.00,,---,0.00,390.00,VWS V14.01,2013-10-21 19:19:00,
2013-10-21 15:24:00,65.0,42.0,30.06,West,264,0.0,9.0,43,0.00,,---,0.00,378.00,VWS V14.01,2013-10-21 19:24:00,
2013-10-21 15:29:00,64.9,41.9,30.06,WSW,244,2.0,9.0,43,0.00,,---,0.00,366.00,VWS V14.01,2013-10-21 19:29:00,
2013-10-21 15:30:00,65.0,43.2,30.07,NE,54,0.0,9.0,45,0.00,,---,0.00,489.00,VWS V14.01,2013-10-21 19:30:00,
2013-10-21 15:34:00,64.6,41.6,30.06,WSW,254,0.0,5.0,43,0.00,,---,0.00,355.00,VWS V14.01,2013-10-21 19:34:00,
2013-10-21 15:39:00,64.4,42.0,30.06,ENE,78,1.0,6.0,44,0.00,,---,0.00,343.00,VWS V14.01,2013-10-21 19:39:00,
2013-10-21 15:44:00,64.3,40.7,30.05,West,273,6.0,7.0,42,0.00,,---,0.00,330.00,VWS V14.01,2013-10-21 19:44:00,
2013-10-21 15:49:00,64.2,41.8,30.05,SSE,164,0.0,7.0,44,0.00,,---,0.00,323.00,VWS V14.01,2013-10-21 19:49:00,
2013-10-21 15:54:00,64.4,41.4,30.05,WSW,250,0.0,7.0,43,0.00,,---,0.00,311.00,VWS V14.01,2013-10-21 19:54:00,
2013-10-21 15:59:00,64.3,41.3,30.05,NE,34,0.0,7.0,43,0.00,,---,0.00,295.00,VWS V14.01,2013-10-21 19:59:00,
2013-10-21 16:00:00,64.8,42.4,30.06,East,98,0.0,8.0,44,0.00,,---,0.00,431.00,VWS V14.01,2013-10-21 20:00:00,
2013-10-21 16:04:00,64.3,41.3,30.05,West,268,2.0,4.0,43,0.00,,---,0.00,279.00,VWS V14.01,2013-10-21 20:04:00,
2013-10-21 16:09:00,64.1,40.6,30.05,SSE,150,0.0,8.0,42,0.00,,---,0.00,264.00,VWS V14.01,2013-10-21 20:09:00,
2013-10-21 16:14:00,63.9,41.0,30.05,West,280,0.0,8.0,43,0.00,,---,0.00,250.00,VWS V14.01,2013-10-21 20:14:00,
2013-10-21 16:19:00,64.1,41.8,30.05,West,280,0.0,8.0,44,0.00,,---,0.00,236.00,VWS V14.01,2013-10-21 20:19:00,
2013-10-21 16:24:00,64.3,41.9,30.05,WNW,292,1.0,8.0,44,0.00,,---,0.00,221.00,VWS V14.01,2013-10-21 20:24:00,
2013-10-21 16:29:00,64.3,41.9,30.05,WNW,292,0.0,8.0,44,0.00,,---,0.00,209.00,VWS V14.01,2013-10-21 20:29:00,
2013-10-21 16:30:00,64.8,41.8,30.06,West,270,5.0,9.0,43,0.00,,---,0.00,364.00,VWS V14.01,2013-10-21 20:30:00,
2013-10-21 16:34:00,64.1,41.2,30.04,WNW,292,0.0,3.0,43,0.00,,---,0.00,188.00,VWS V14.01,2013-10-21 20:34:00,
2013-10-21 16:39:00,64.0,41.7,30.04,NW,323,0.0,3.0,44,0.00,,---,0.00,153.00,VWS V14.01,2013-10-21 20:39:00,
2013-10-21 16:44:00,63.8,42.1,30.04,NW,323,0.0,3.0,45,0.00,,---,0.00,113.00,VWS V14.01,2013-10-21 20:44:00,
2013-10-21 16:49:00,63.6,41.3,30.04,NW,323,0.0,3.0,44,0.00,,---,0.00,69.00,VWS V14.01,2013-10-21 20:49:00,
2013-10-21 16:54:00,63.1,41.4,30.04,NW,323,3.0,3.0,45,0.00,,---,0.00,63.00,VWS V14.01,2013-10-21 20:54:00,
2013-10-21 16:59:00,62.7,41.6,30.03,NW,323,0.0,3.0,46,0.00,,---,0.00,35.00,VWS V14.01,2013-10-21 20:59:00,
2013-10-21 17:00:00,64.3,41.3,30.05,SSW,207,0.0,7.0,43,0.00,,---,0.00,288.00,VWS V14.01,2013-10-21 21:00:00,
2013-10-21 17:04:00,62.3,41.8,30.03,NW,323,0.0,0.0,47,0.00,,---,0.00,30.00,VWS V14.01,2013-10-21 21:04:00,
2013-10-21 17:09:00,62.0,41.6,30.03,NW,323,0.0,1.0,47,0.00,,---,0.00,26.00,VWS V14.01,2013-10-21 21:09:00,
2013-10-21 17:14:00,61.6,42.3,30.03,NW,323,0.0,2.0,49,0.00,,---,0.00,25.00,VWS V14.01,2013-10-21 21:14:00,
2013-10-21 17:19:00,61.3,42.0,30.03,NW,323,0.0,2.0,49,0.00,,---,0.00,21.00,VWS V14.01,2013-10-21 21:19:00,
2013-10-21 17:24:00,60.9,42.7,30.04,NW,323,0.0,2.0,51,0.00,,---,0.00,21.00,VWS V14.01,2013-10-21 21:24:00,
2013-10-21 17:29:00,60.5,42.3,30.04,NW,323,0.0,2.0,51,0.00,,---,0.00,19.00,VWS V14.01,2013-10-21 21:29:00,
2013-10-21 17:30:00,64.3,41.9,30.04,WNW,292,1.0,8.0,44,0.00,,---,0.00,204.00,VWS V14.01,2013-10-21 21:30:00,
2013-10-21 17:34:00,60.2,42.0,30.04,NW,323,0.0,0.0,51,0.00,,---,0.00,18.00,VWS V14.01,2013-10-21 21:34:00,
2013-10-21 17:39:00,59.9,42.2,30.04,NW,323,0.0,0.0,52,0.00,,---,0.00,16.00,VWS V14.01,2013-10-21 21:39:00,
2013-10-21 17:44:00,59.6,42.5,30.04,NW,323,0.0,0.0,53,0.00,,---,0.00,12.00,VWS V14.01,2013-10-21 21:44:00,
2013-10-21 17:49:00,59.3,42.2,30.04,NW,323,0.0,0.0,53,0.00,,---,0.00,11.00,VWS V14.01,2013-10-21 21:49:00,
2013-10-21 17:54:00,59.0,42.4,30.04,NW,323,0.0,0.0,54,0.00,,---,0.00,7.00,VWS V14.01,2013-10-21 21:54:00,
2013-10-21 17:59:00,58.6,42.5,30.04,NW,323,1.0,1.0,55,0.00,,---,0.00,5.00,VWS V14.01,2013-10-21 21:59:00,
2013-10-21 18:00:00,62.5,42.0,30.03,NW,323,0.0,3.0,47,0.00,,---,0.00,33.00,VWS V14.01,2013-10-21 22:00:00,
2013-10-21 18:04:00,58.3,42.7,30.04,NW,323,0.0,0.0,56,0.00,,---,0.00,0.00,VWS V14.01,2013-10-21 22:04:00,
2013-10-21 18:09:00,57.9,42.8,30.04,NW,323,0.0,1.0,57,0.00,,---,0.00,0.00,VWS V14.01,2013-10-21 22:09:00,
2013-10-21 18:14:00,57.5,42.4,30.04,NW,323,0.0,1.0,57,0.00,,---,0.00,0.00,VWS V14.01,2013-10-21 22:14:00,
2013-10-21 18:19:00,57.3,42.2,30.04,NW,323,0.0,1.0,57,0.00,,---,0.00,0.00,VWS V14.01,2013-10-21 22:19:00,
2013-10-21 18:24:00,57.2,42.6,30.04,NW,323,0.0,1.0,58,0.00,,---,0.00,0.00,VWS V14.01,2013-10-21 22:24:00,
2013-10-21 18:29:00,56.9,42.3,30.04,NW,323,0.0,1.0,58,0.00,,---,0.00,0.00,VWS V14.01,2013-10-21 22:29:00,
2013-10-21 18:30:00,60.4,42.2,30.04,NW,323,0.0,2.0,51,0.00,,---,0.00,19.00,VWS V14.01,2013-10-21 22:30:00,
2013-10-21 18:34:00,56.6,42.0,30.04,NW,323,0.0,1.0,58,0.00,,---,0.00,0.00,VWS V14.01,2013-10-21 22:34:00,
2013-10-21 18:39:00,56.4,42.3,30.04,NW,323,0.0,2.0,59,0.00,,---,0.00,0.00,VWS V14.01,2013-10-21 22:39:00,
2013-10-21 18:44:00,56.1,42.0,30.04,NW,323,0.0,2.0,59,0.00,,---,0.00,0.00,VWS V14.01,2013-10-21 22:44:00,
2013-10-21 18:49:00,55.9,41.8,30.05,NW,323,0.0,2.0,59,0.00,,---,0.00,0.00,VWS V14.01,2013-10-21 22:49:00,
2013-10-21 18:54:00,55.7,41.6,30.05,NW,323,0.0,2.0,59,0.00,,---,0.00,0.00,VWS V14.01,2013-10-21 22:54:00,
2013-10-21 18:59:00,55.5,41.4,30.04,NW,323,0.0,2.0,59,0.00,,---,0.00,0.00,VWS V14.01,2013-10-21 22:59:00,
2013-10-21 19:00:00,58.5,42.4,30.04,NW,323,0.0,1.0,55,0.00,,---,0.00,5.00,VWS V14.01,2013-10-21 23:00:00,
2013-10-21 19:04:00,55.5,41.0,30.05,NW,323,0.0,2.0,58,0.00,,---,0.00,0.00,VWS V14.01,2013-10-21 23:04:00,
2013-10-21 19:09:00,55.5,41.0,30.04,NW,323,0.0,2.0,58,0.00,,---,0.00,0.00,VWS V14.01,2013-10-21 23:09:00,
2013-10-21 19:14:00,55.6,40.6,30.04,NW,323,0.0,2.0,57,0.00,,---,0.00,0.00,VWS V14.01,2013-10-21 23:14:00,
2013-10-21 19:19:00,55.6,41.1,30.04,NW,323,0.0,3.0,58,0.00,,---,0.00,0.00,VWS V14.01,2013-10-21 23:19:00,
2013-10-21 19:24:00,55.6,40.6,30.04,NW,323,0.0,3.0,57,0.00,,---,0.00,0.00,VWS V14.01,2013-10-21 23:24:00,
2013-10-21 19:29:00,55.7,40.3,30.04,NW,323,2.0,3.0,56,0.00,,---,0.00,0.00,VWS V14.01,2013-10-21 23:29:00,
2013-10-21 19:30:00,56.8,42.2,30.04,NW,323,0.0,2.0,58,0.00,,---,0.00,0.00,VWS V14.01,2013-10-21 23:30:00,
2013-10-21 19:34:00,55.9,40.0,30.04,NW,323,0.0,1.0,55,0.00,,---,0.00,0.00,VWS V14.01,2013-10-21 23:34:00,
2013-10-21 19:39:00,56.0,40.1,30.04,NW,323,0.0,1.0,55,0.00,,---,0.00,0.00,VWS V14.01,2013-10-21 23:39:00,
2013-10-21 19:44:00,55.9,39.5,30.04,NW,323,0.0,1.0,54,0.00,,---,0.00,0.00,VWS V14.01,2013-10-21 23:44:00,
2013-10-21 19:49:00,55.9,39.5,30.03,NW,323,0.0,1.0,54,0.00,,---,0.00,0.00,VWS V14.01,2013-10-21 23:49:00,
2013-10-21 19:54:00,55.8,39.9,30.03,NW,323,0.0,1.0,55,0.00,,---,0.00,0.00,VWS V14.01,2013-10-21 23:54:00,
2013-10-21 19:59:00,55.5,39.1,30.03,NW,323,0.0,1.0,54,0.00,,---,0.00,0.00,VWS V14.01,2013-10-21 23:59:00,
2013-10-21 20:00:00,55.5,41.4,30.04,NW,323,0.0,2.0,59,0.00,,---,0.00,0.00,VWS V14.01,2013-10-22 00:00:00,
2013-10-21 20:04:00,55.3,39.0,30.03,NW,323,0.0,0.0,54,0.00,,---,0.00,0.00,VWS V14.01,2013-10-22 00:04:00,
2013-10-21 20:09:00,55.4,39.5,30.03,NW,323,0.0,2.0,55,0.00,,---,0.00,0.00,VWS V14.01,2013-10-22 00:09:00,
2013-10-21 20:14:00,55.5,39.1,30.03,SSW,212,0.0,3.0,54,0.00,,---,0.00,0.00,VWS V14.01,2013-10-22 00:14:00,
2013-10-21 20:19:00,56.3,39.9,30.03,SSW,210,3.0,5.0,54,0.00,,---,0.00,0.00,VWS V14.01,2013-10-22 00:19:00,
2013-10-21 20:24:00,56.5,40.1,30.03,WSW,246,0.0,5.0,54,0.00,,---,0.00,0.00,VWS V14.01,2013-10-22 00:24:00,
2013-10-21 20:29:00,56.4,40.5,30.03,West,263,0.0,5.0,55,0.00,,---,0.00,0.00,VWS V14.01,2013-10-22 00:29:00,
2013-10-21 20:30:00,55.8,39.9,30.04,NW,323,0.0,3.0,55,0.00,,---,0.00,0.00,VWS V14.01,2013-10-22 00:30:00,
2013-10-21 20:34:00,56.2,40.3,30.03,West,278,0.0,6.0,55,0.00,,---,0.00,0.00,VWS V14.01,2013-10-22 00:34:00,
2013-10-21 20:39:00,56.0,40.5,30.03,West,269,3.0,8.0,56,0.00,,---,0.00,0.00,VWS V14.01,2013-10-22 00:39:00,
2013-10-21 20:44:00,55.8,40.8,30.03,West,280,1.0,8.0,57,0.00,,---,0.00,0.00,VWS V14.01,2013-10-22 00:44:00,
2013-10-21 20:49:00,55.7,40.7,30.03,West,274,3.0,8.0,57,0.00,,---,0.00,0.00,VWS V14.01,2013-10-22 00:49:00,
2013-10-21 20:54:00,55.5,41.0,30.03,West,264,3.0,8.0,58,0.00,,---,0.00,0.00,VWS V14.01,2013-10-22 00:54:00,
2013-10-21 20:59:00,55.3,41.2,30.03,WNW,290,0.0,8.0,59,0.00,,---,0.00,0.00,VWS V14.01,2013-10-22 00:59:00,
2013-10-21 21:00:00,55.5,39.6,30.03,NW,323,0.0,1.0,55,0.00,,---,0.00,0.00,VWS V14.01,2013-10-22 01:00:00,
2013-10-21 21:04:00,55.1,41.9,30.04,SW,227,0.0,6.0,61,0.00,,---,0.00,0.00,VWS V14.01,2013-10-22 01:04:00,
2013-10-21 21:09:00,55.0,42.2,30.04,WNW,290,2.0,6.0,62,0.00,,---,0.00,0.00,VWS V14.01,2013-10-22 01:09:00,
2013-10-21 21:14:00,55.0,42.2,30.03,West,277,2.0,6.0,62,0.00,,---,0.00,0.00,VWS V14.01,2013-10-22 01:14:00,
2013-10-21 21:19:00,55.0,42.7,30.03,West,263,0.0,6.0,63,0.00,,---,0.00,0.00,VWS V14.01,2013-10-22 01:19:00,
2013-10-21 21:24:00,54.9,42.6,30.03,WNW,302,1.0,6.0,63,0.00,,---,0.00,0.00,VWS V14.01,2013-10-22 01:24:00,
2013-10-21 21:29:00,54.6,42.7,30.03,WNW,302,0.0,6.0,64,0.00,,---,0.00,0.00,VWS V14.01,2013-10-22 01:29:00,
2013-10-21 21:30:00,56.3,40.4,30.03,West,273,3.0,5.0,55,0.00,,---,0.00,0.00,VWS V14.01,2013-10-22 01:30:00,
2013-10-21 21:34:00,54.2,42.3,30.03,NW,309,0.0,5.0,64,0.00,,---,0.00,0.00,VWS V14.01,2013-10-22 01:34:00,
2013-10-21 21:39:00,54.0,42.5,30.03,NW,309,0.0,5.0,65,0.00,,---,0.00,0.00,VWS V14.01,2013-10-22 01:39:00,
2013-10-21 21:44:00,53.9,42.8,30.03,WNW,294,0.0,5.0,66,0.00,,---,0.00,0.00,VWS V14.01,2013-10-22 01:44:00,
2013-10-21 21:49:00,53.4,42.7,30.03,WNW,294,0.0,5.0,67,0.00,,---,0.00,0.00,VWS V14.01,2013-10-22 01:49:00,
2013-10-21 21:54:00,53.0,42.7,30.03,WNW,298,3.0,5.0,68,0.00,,---,0.00,0.00,VWS V14.01,2013-10-22 01:54:00,
2013-10-21 21:59:00,52.9,42.6,30.03,WNW,298,0.0,5.0,68,0.00,,---,0.00,0.00,VWS V14.01,2013-10-22 01:59:00,
2013-10-21 22:00:00,55.2,41.1,30.03,West,271,0.0,8.0,59,0.00,,---,0.00,0.00,VWS V14.01,2013-10-22 02:00:00,
2013-10-21 22:04:00,52.9,43.0,30.02,WNW,298,0.0,0.0,69,0.00,,---,0.00,0.00,VWS V14.01,2013-10-22 02:04:00,
2013-10-21 22:09:00,52.7,42.8,30.02,WNW,298,0.0,0.0,69,0.00,,---,0.00,0.00,VWS V14.01,2013-10-22 02:09:00,
2013-10-21 22:14:00,52.7,42.8,30.02,West,260,0.0,5.0,69,0.00,,---,0.00,0.00,VWS V14.01,2013-10-22 02:14:00,
2013-10-21 22:19:00,52.8,42.9,30.02,NW,317,2.0,6.0,69,0.00,,---,0.00,0.00,VWS V14.01,2013-10-22 02:19:00,
2013-10-21 22:24:00,53.0,43.1,30.02,SW,227,2.0,6.0,69,0.00,,---,0.00,0.00,VWS V14.01,2013-10-22 02:24:00,
2013-10-21 22:29:00,53.1,43.6,30.02,SW,215,0.0,6.0,70,0.00,,---,0.00,0.00,VWS V14.01,2013-10-22 02:29:00,
2013-10-21 22:30:00,54.5,42.6,30.03,WNW,302,0.0,6.0,64,0.00,,---,0.00,0.00,VWS V14.01,2013-10-22 02:30:00,
2013-10-21 22:34:00,52.9,43.4,30.02,SE,134,0.0,3.0,70,0.00,,---,0.00,0.00,VWS V14.01,2013-10-22 02:34:00,
2013-10-21 22:39:00,52.8,43.3,30.02,SE,134,0.0,4.0,70,0.00,,---,0.00,0.00,VWS V14.01,2013-10-22 02:39:00,
2013-10-21 22:44:00,52.8,43.3,30.02,ENE,64,0.0,4.0,70,0.00,,---,0.00,0.00,VWS V14.01,2013-10-22 02:44:00,
2013-10-21 22:49:00,52.6,43.5,30.02,ENE,64,0.0,4.0,71,0.00,,---,0.00,0.00,VWS V14.01,2013-10-22 02:49:00,
2013-10-21 22:54:00,52.5,43.4,30.01,South,187,0.0,4.0,71,0.00,,---,0.00,0.00,VWS V14.01,2013-10-22 02:54:00,
2013-10-21 22:59:00,52.3,43.5,30.01,East,86,0.0,4.0,72,0.00,,---,0.00,0.00,VWS V14.01,2013-10-22 02:59:00,
2013-10-21 23:00:00,52.9,43.0,30.03,WNW,298,0.0,5.0,69,0.00,,---,0.00,0.00,VWS V14.01,2013-10-22 03:00:00,
2013-10-21 23:04:00,52.2,43.5,30.01,NNE,17,0.0,1.0,72,0.00,,---,0.00,0.00,VWS V14.01,2013-10-22 03:04:00,
2013-10-21 23:09:00,52.1,43.4,30.01,NNE,28,0.0,1.0,72,0.00,,---,0.00,0.00,VWS V14.01,2013-10-22 03:09:00,
2013-10-21 23:14:00,51.9,43.5,30.01,ENE,71,0.0,2.0,73,0.00,,---,0.00,0.00,VWS V14.01,2013-10-22 03:14:00,
2013-10-21 23:19:00,51.8,43.4,30.00,ENE,71,0.0,2.0,73,0.00,,---,0.00,0.00,VWS V14.01,2013-10-22 03:19:00,
2013-10-21 23:24:00,51.6,43.6,30.00,South,173,0.0,4.0,74,0.00,,---,0.00,0.00,VWS V14.01,2013-10-22 03:24:00,
2013-10-21 23:29:00,51.6,43.6,30.00,SW,234,1.0,4.0,74,0.00,,---,0.00,0.00,VWS V14.01,2013-10-22 03:29:00,
2013-10-21 23:30:00,53.0,43.1,30.02,SW,215,0.0,6.0,69,0.00,,---,0.00,0.00,VWS V14.01,2013-10-22 03:30:00,
2013-10-21 23:34:00,51.4,43.4,30.00,NW,304,0.0,1.0,74,0.00,,---,0.00,0.00,VWS V14.01,2013-10-22 03:34:00,
2013-10-21 23:39:00,51.4,43.4,30.00,NW,304,0.0,1.0,74,0.00,,---,0.00,0.00,VWS V14.01,2013-10-22 03:39:00,
2013-10-21 23:44:00,51.3,43.7,30.00,WSW,242,0.0,3.0,75,0.00,,---,0.00,0.00,VWS V14.01,2013-10-22 03:44:00,
2013-10-21 23:49:00,51.3,43.7,29.99,WSW,242,0.0,4.0,75,0.00,,---,0.00,0.00,VWS V14.01,2013-10-22 03:49:00,
2013-10-21 23:54:00,51.3,43.7,29.99,WNW,284,0.0,4.0,75,0.00,,---,0.00,0.00,VWS V14.01,2013-10-22 03:54:00,
2013-10-21 23:59:00,51.1,43.5,29.99,SW,236,0.0,4.0,75,0.00,,---,0.00,0.00,VWS V14.01,2013-10-22 03:59:00,